Litchfield, ME

1:54 PM EST on January 27, 2015 (GMT -0500)
APRSWXNET Litchfield ME US | Change Station
CLOSE
Current Station
Personal Weather Station
Location: Litchfield, ME
Elevation: 173 ft
Nearby Weather Stations

Elev 173 ft 44.16 °N, 69.87 °W | Updated 35 minutes ago

Snow
Snow
11 °F
Feels Like -1 °F
N
8
Wind Variable Wind from North
Gusts 22.0 mph

Today
High -- | Low -- °F
--% Chance of Precip.
Yesterday
High -- | Low -- °F
Precip. -- in
7:03 AM 4:42 PM
First Quarter, 56% visible
Pressure 29.58 in
Visibility 0.2 miles
Clouds
Windchill -1 °F
Dew Point 7 °F
Humidity 82%
Rainfall 0.00 in
Snow Depth Not available.
UV Not available.
Pollen .10 out of 12
Air Quality Not available.
Flu Activity Not available.
SPECI KAUG 271800Z AUTO 01026G38KT 1/4SM +SN VV009 M12/M15 A2958 RMK AO2 PK WND 01037/1758 P0000 T11221150

More Conditions Fewer Conditions

Pressure 29.58 in
Visibility 0.2 miles
Clouds
Windchill -1 °F
Dew Point 7 °F
Humidity 82%
Rainfall 0.00 in
Snow Depth Not available.
UV Not available.
Pollen .10 out of 12
Air Quality Not available.
Flu Activity Not available.
SPECI KAUG 271800Z AUTO 01026G38KT 1/4SM +SN VV009 M12/M15 A2958 RMK AO2 PK WND 01037/1758 P0000 T11221150

More Conditions Fewer Conditions

10-Day Weather Forecast

Almanac

Astronomy

Jan. 27, 2015 Rise Set
Actual Time
Civil Twilight
Nautical Twilight
Astronomical Twilight
Moon
Length of Visible Light
Length of Day
Tomorrow will be .
, % of the Moon is Illuminated

Today's Extremes

State Highs State Lows

Community

WunderPhotos

Upload Photos

1,790,776 photos uploaded!

WunderBlogs® & News

Nearby

Air Quality

  Air Quality AQ Index Pollutant
Not available.

Snow Depth

Station Depth Elevation

Earthquake Activity

City Distance Mag. Time & Date
Minimum magnitude displayed is 2.5.

Coastal Water Temperatures

Place Temperature

Nearby Weather Stations